Aérodrome :







RETROUVEZ-NOUS SUR...

 
LOGIN :

S'inscrire | Disclaimer

   EN    FR    IT 

 









Légende :    VFR   VFR Marginal   IFR   IFR Intensif   IFR Très Intensif
Visi : 
Plafond : 
>= 8 km
>= 3000ft
5 à 8 km
1000 à 3000 ft
1500m à 5 km
500 à 1000 ft
800 à 1500m
200 à 500 ft
< 800m
< 200 ft
Symboles :   Orages  Brouillard  Fortes neiges  Fortes précipitations  Vent > 20 kt






- Altitude de l'aérodrome : 1270 ft
- Code IATA : YMT


CYMT - Chapais

DERNIER METAR :
  • 260300Z AUTO 21003KT 9SM FEW050 BKN060 BKN078 BKN120 15/15 A2996 RMK SLP153 DENSITY ALT 1500FT

METARs EXPIRÉS :
  • 260200Z AUTO VRB02KT 9SM FEW070 BKN110 BKN140 OVC160 16/15 A2995 RMK LTNG DIST S SLP150 DENSITY ALT 1600FT
  • 260135Z AUTO 21005KT 9SM FEW060 SCT089 BKN130 OVC170 16/15 A2995 RMK LTNG DIST SE S SLP148 DENSITY ALT 1600FT
  • 260125Z AUTO 19005KT 9SM -RA SCT060 SCT073 BKN093 OVC130 16/15 A2994 RMK LTNG DIST S SLP145 DENSITY ALT 1600FT
  • 260110Z AUTO 18007KT 9SM -RA VCTS SCT060 SCT073 BKN091 OVC120 16/15 A2993 RMK LTNG DIST ALQDS SLP142 DENSITY ALT 1600FT

Prévision TAF périmée.
FIR CZUL / Amérique du Nord



MET'MAP, la Météo Aéronautique d'un coup d'oeil ! - Copyright ORBIFLY Décembre 2007 - Disclaimer

ORBIFLY MET'MAP TEAM :

Programmation & Développement : Alexandra Zaïnal
Sur une idée originale de : Baudouin d'Aumeries
Assistance à la programmation : Marc-Olivier Méhu
Soutien technique & logistique : Manuel Goepfert

Contact : metmap@orbifly.com




SOURCES & CREDITS :

   NOAA